createdAt,value
2022-08-11T00:00:34.677Z,27.28
2022-08-11T00:01:34.667Z,27.26
2022-08-11T00:02:34.807Z,27.28
2022-08-11T00:03:43.718Z,27.3
2022-08-11T00:04:34.664Z,27.32
2022-08-11T00:05:34.687Z,27.39
2022-08-11T00:06:34.672Z,27.33
2022-08-11T00:07:34.678Z,27.31
2022-08-11T00:08:34.700Z,27.29
2022-08-11T00:09:38.890Z,27.29
2022-08-11T00:10:34.680Z,27.36
2022-08-11T00:11:34.683Z,27.41
2022-08-11T00:12:34.664Z,27.44
2022-08-11T00:13:34.699Z,27.47
2022-08-11T00:14:37.238Z,27.42
2022-08-11T00:15:34.671Z,27.42
2022-08-11T00:16:34.677Z,27.46
2022-08-11T00:17:34.682Z,27.43
2022-08-11T00:18:34.710Z,27.38
2022-08-11T00:20:11.995Z,27.39
2022-08-11T00:20:34.681Z,27.39
2022-08-11T00:22:04.752Z,27.49
2022-08-11T00:22:34.779Z,27.56
2022-08-11T00:23:34.695Z,27.52
2022-08-11T00:24:34.673Z,27.49
2022-08-11T00:25:34.665Z,27.54
2022-08-11T00:26:34.670Z,27.58
2022-08-11T00:27:34.686Z,27.7
2022-08-11T00:28:34.704Z,27.67
2022-08-11T00:29:34.681Z,27.62
2022-08-11T00:30:34.678Z,27.57
2022-08-11T00:31:34.665Z,27.63
2022-08-11T00:32:34.682Z,27.61
2022-08-11T00:33:44.352Z,27.55
2022-08-11T00:34:34.682Z,27.69
2022-08-11T00:35:52.087Z,27.64
2022-08-11T00:36:34.673Z,27.65
2022-08-11T00:37:34.684Z,27.82
2022-08-11T00:38:34.699Z,27.83
2022-08-11T00:39:34.775Z,27.83
2022-08-11T00:40:34.682Z,27.78
2022-08-11T00:41:34.674Z,27.7
2022-08-11T00:42:34.676Z,27.6
2022-08-11T00:43:34.701Z,27.46
2022-08-11T00:44:34.676Z,27.53
2022-08-11T00:45:34.684Z,27.7
2022-08-11T00:46:34.684Z,27.74
2022-08-11T00:47:34.675Z,27.84
2022-08-11T00:48:34.699Z,27.75
2022-08-11T00:49:34.673Z,27.62
2022-08-11T00:50:34.678Z,27.62
2022-08-11T00:52:02.218Z,27.62
2022-08-11T00:52:34.664Z,27.52
2022-08-11T00:53:34.673Z,27.53
2022-08-11T00:54:34.668Z,27.65
2022-08-11T00:55:34.669Z,27.83
2022-08-11T00:56:34.673Z,27.89
2022-08-11T00:57:37.506Z,27.89
2022-08-11T00:58:34.848Z,27.89
2022-08-11T00:59:35.945Z,27.89
2022-08-11T01:00:34.717Z,27.89
2022-08-11T01:01:34.679Z,27.94
2022-08-11T01:02:34.679Z,28
2022-08-11T01:03:34.686Z,28.01
2022-08-11T01:04:34.667Z,27.97
2022-08-11T01:05:34.683Z,28.08
2022-08-11T01:06:34.679Z,28.14
2022-08-11T01:08:01.498Z,28.12
2022-08-11T01:08:34.691Z,28.12
2022-08-11T01:09:34.690Z,28.12
2022-08-11T01:10:34.677Z,28.12
2022-08-11T01:11:34.679Z,28.1
2022-08-11T01:12:34.679Z,28.1
2022-08-11T01:13:34.694Z,27.96
2022-08-11T01:14:34.868Z,27.58
2022-08-11T01:15:34.680Z,27.99
2022-08-11T01:16:34.685Z,27.98
2022-08-11T01:17:34.680Z,27.96
2022-08-11T01:18:34.701Z,28
2022-08-11T01:19:34.665Z,27.61
2022-08-11T01:20:47.268Z,28.01
2022-08-11T01:21:34.673Z,27.92
2022-08-11T01:22:34.685Z,27.94
2022-08-11T01:23:34.696Z,28.08
2022-08-11T01:24:34.694Z,28.02
2022-08-11T01:25:34.684Z,28.03
2022-08-11T01:26:34.678Z,28.03
2022-08-11T01:30:34.693Z,28.18
2022-08-11T01:31:34.685Z,28.29
2022-08-11T01:32:34.668Z,28.3
2022-08-11T01:33:34.686Z,28.27
2022-08-11T01:34:34.684Z,28.34
2022-08-11T01:35:34.671Z,28.37
2022-08-11T01:36:34.813Z,28.44
2022-08-11T01:37:34.684Z,28.41
2022-08-11T01:38:34.673Z,28.43
2022-08-11T01:39:34.717Z,28.49
2022-08-11T01:40:34.670Z,28.4
2022-08-11T01:41:34.673Z,28.36
2022-08-11T01:42:34.674Z,28.28
2022-08-11T01:43:34.685Z,28.29
2022-08-11T01:44:34.681Z,28.24
2022-08-11T01:45:34.679Z,28.28
2022-08-11T01:46:34.670Z,28.28
2022-08-11T01:47:34.671Z,28.28
2022-08-11T01:48:34.686Z,27.82
2022-08-11T01:50:07.107Z,28.1
2022-08-11T01:50:34.682Z,28.19
2022-08-11T01:51:34.676Z,28.19
2022-08-11T01:52:35.258Z,28.27
2022-08-11T01:53:34.677Z,28.27
2022-08-11T01:54:34.708Z,28.28
2022-08-11T01:55:34.664Z,28.28
2022-08-11T01:56:34.661Z,28.38
2022-08-11T01:57:34.659Z,28.46
2022-08-11T01:58:44.110Z,28.49
2022-08-11T01:59:34.683Z,28.42
2022-08-11T02:00:34.743Z,28.32
2022-08-11T02:01:34.666Z,28.36
2022-08-11T02:02:34.665Z,28.3
2022-08-11T02:03:34.680Z,28.31
2022-08-11T02:04:34.680Z,28.36
2022-08-11T02:05:34.665Z,28.31
2022-08-11T02:06:34.673Z,28.4
2022-08-11T02:07:34.673Z,28.43
2022-08-11T02:08:34.665Z,28.47
2022-08-11T02:09:34.690Z,28.52
2022-08-11T02:10:36.533Z,28.49
2022-08-11T02:11:35.449Z,28.49
2022-08-11T02:12:34.748Z,28.63
2022-08-11T02:13:36.667Z,28.63
2022-08-11T02:14:34.693Z,29.12
2022-08-11T02:15:34.664Z,28.68
2022-08-11T02:16:34.676Z,28.74
2022-08-11T02:17:34.665Z,28.61
2022-08-11T02:18:35.039Z,28.61
2022-08-11T02:19:34.686Z,28.56
2022-08-11T02:24:06.112Z,28.56
2022-08-11T02:24:34.687Z,28.56
2022-08-11T02:25:34.664Z,28.58
2022-08-11T02:26:34.670Z,28.75
2022-08-11T02:27:34.681Z,28.84
2022-08-11T02:28:38.392Z,28.86
2022-08-11T02:29:34.679Z,29.02
2022-08-11T02:30:34.658Z,29.02
2022-08-11T02:32:14.548Z,28.68
2022-08-11T02:32:34.755Z,28.88
2022-08-11T02:33:36.425Z,28.8
2022-08-11T02:34:34.691Z,28.84
2022-08-11T02:35:34.678Z,28.81
2022-08-11T02:36:34.681Z,28.79
2022-08-11T02:37:34.679Z,28.8
2022-08-11T02:38:34.681Z,28.82
2022-08-11T02:39:34.723Z,28.86
2022-08-11T02:40:34.670Z,28.91
2022-08-11T02:41:34.670Z,29.01
2022-08-11T02:42:42.266Z,29.19
2022-08-11T02:43:34.675Z,29.15
2022-08-11T02:44:34.702Z,29.15
2022-08-11T02:45:34.663Z,29.11
2022-08-11T02:46:34.684Z,29.06
2022-08-11T02:47:34.680Z,29.06
2022-08-11T02:48:34.686Z,29.16
2022-08-11T02:49:34.682Z,29.38
2022-08-11T02:50:34.677Z,29.38
2022-08-11T02:51:34.662Z,29.38
2022-08-11T02:52:34.667Z,29.24
2022-08-11T02:53:34.665Z,29.32
2022-08-11T02:54:34.693Z,29.32
2022-08-11T02:55:47.985Z,29.33
2022-08-11T02:56:34.661Z,29.32
2022-08-11T02:57:34.665Z,29.37
2022-08-11T02:58:34.667Z,29.5
2022-08-11T02:59:34.686Z,29.4
2022-08-11T03:00:34.666Z,29.4
2022-08-11T03:01:34.683Z,29.19
2022-08-11T03:02:34.694Z,29.22
2022-08-11T03:03:34.682Z,29.28
2022-08-11T03:04:37.607Z,29.32
2022-08-11T03:05:34.657Z,29.32
2022-08-11T03:06:34.664Z,29.28
2022-08-11T03:07:34.675Z,29.29
2022-08-11T03:08:34.670Z,29.36
2022-08-11T03:09:34.681Z,29.36
2022-08-11T03:10:34.669Z,29.36
2022-08-11T03:11:34.672Z,29.02
2022-08-11T03:12:34.667Z,28.98
2022-08-11T03:13:34.668Z,28.96
2022-08-11T03:14:34.691Z,28.95
2022-08-11T03:15:34.669Z,28.81
2022-08-11T03:16:34.670Z,28.55
2022-08-11T03:17:34.668Z,28.44
2022-08-11T03:18:34.703Z,28.44
2022-08-11T03:19:34.680Z,28.71
2022-08-11T03:20:37.932Z,28.81
2022-08-11T03:22:01.739Z,28.89
2022-08-11T03:22:34.670Z,28.92
2022-08-11T03:23:34.670Z,28.86
2022-08-11T03:24:34.691Z,28.73
2022-08-11T03:25:34.674Z,28.63
2022-08-11T03:26:34.663Z,28.82
2022-08-11T03:27:34.671Z,28.92
2022-08-11T03:28:34.671Z,29
2022-08-11T03:29:34.679Z,29.08
2022-08-11T03:30:34.656Z,29.08
2022-08-11T03:31:34.675Z,29.04
2022-08-11T03:32:34.673Z,29.08
2022-08-11T03:33:34.679Z,29.08
2022-08-11T03:34:34.673Z,29.14
2022-08-11T03:35:34.671Z,29.15
2022-08-11T03:36:55.761Z,29.23
2022-08-11T03:37:34.661Z,29.32
2022-08-11T03:38:34.660Z,29.37
2022-08-11T03:39:34.742Z,29.43
2022-08-11T03:40:34.659Z,29.5
2022-08-11T03:42:03.903Z,29.41
2022-08-11T03:42:34.661Z,29.37
2022-08-11T03:43:34.789Z,29.28
2022-08-11T03:44:34.691Z,29.28
2022-08-11T03:45:40.333Z,29.28
2022-08-11T03:46:34.680Z,29.37
2022-08-11T03:47:34.674Z,29.4
2022-08-11T03:48:34.685Z,29.5
2022-08-11T03:49:34.675Z,29.28
2022-08-11T03:50:34.673Z,29.39
2022-08-11T03:51:44.665Z,29.39
2022-08-11T03:52:34.663Z,29.26
2022-08-11T03:53:34.685Z,29.18
2022-08-11T03:54:34.687Z,28.99
2022-08-11T03:55:34.676Z,28.94
2022-08-11T03:56:34.676Z,29
2022-08-11T03:57:34.672Z,28.97
2022-08-11T03:58:39.528Z,28.95
2022-08-11T03:59:34.681Z,28.89
2022-08-11T04:00:34.674Z,28.89
2022-08-11T04:01:34.736Z,28.97
2022-08-11T04:02:34.666Z,29.04
2022-08-11T04:03:34.687Z,29.06
2022-08-11T04:04:34.681Z,28.94
2022-08-11T04:05:34.661Z,28.95
2022-08-11T04:06:34.662Z,28.95
2022-08-11T04:07:34.658Z,28.92
2022-08-11T04:08:34.729Z,28.9
2022-08-11T04:09:34.679Z,28.97
2022-08-11T04:10:34.656Z,28.91
2022-08-11T04:11:34.672Z,28.94
2022-08-11T04:12:35.781Z,29.04
2022-08-11T04:13:34.666Z,29.13
2022-08-11T04:14:34.671Z,28.94
2022-08-11T04:15:34.662Z,28.94
2022-08-11T04:16:34.661Z,28.94
2022-08-11T04:17:34.661Z,29.07
2022-08-11T04:18:34.679Z,28.99
2022-08-11T04:19:34.674Z,28.85
2022-08-11T04:20:34.658Z,28.85
2022-08-11T04:21:34.693Z,28.77
2022-08-11T04:22:34.675Z,28.79
2022-08-11T04:24:13.262Z,28.76
2022-08-11T04:24:39.276Z,28.86
2022-08-11T04:25:34.659Z,28.85
2022-08-11T04:26:34.658Z,28.73
2022-08-11T04:27:37.208Z,28.73
2022-08-11T04:28:34.669Z,28.59
2022-08-11T04:29:36.358Z,28.65
2022-08-11T04:30:34.676Z,28.65
2022-08-11T04:31:51.801Z,28.43
2022-08-11T04:32:34.664Z,28.39
2022-08-11T04:33:35.078Z,28.34
2022-08-11T04:34:34.684Z,28.45
2022-08-11T04:35:34.658Z,28.45
2022-08-11T04:36:34.684Z,28.56
2022-08-11T04:37:34.936Z,28.56
2022-08-11T04:38:34.668Z,28.27
2022-08-11T04:39:34.778Z,28.27
2022-08-11T04:40:34.663Z,28.27
2022-08-11T04:41:34.672Z,28.55
2022-08-11T04:42:34.818Z,28.45
2022-08-11T04:43:34.668Z,28.39
2022-08-11T04:44:34.679Z,28.58
2022-08-11T04:45:34.681Z,28.66
2022-08-11T04:46:34.672Z,28.57
2022-08-11T04:47:59.721Z,28.28
2022-08-11T04:48:34.678Z,28.28
2022-08-11T04:49:34.675Z,28.02
2022-08-11T04:50:34.658Z,28.02
2022-08-11T04:51:34.673Z,28.15
2022-08-11T04:52:37.450Z,28.07
2022-08-11T04:53:34.670Z,27.93
2022-08-11T04:54:34.683Z,28
2022-08-11T04:55:37.170Z,27.96
2022-08-11T04:56:34.661Z,28.01
2022-08-11T04:57:34.672Z,27.93
2022-08-11T04:58:34.668Z,27.95
2022-08-11T04:59:34.689Z,27.93
2022-08-11T05:00:34.676Z,27.93
2022-08-11T05:01:37.396Z,27.84
2022-08-11T05:02:34.666Z,27.78
2022-08-11T05:03:34.694Z,27.79
2022-08-11T05:04:34.690Z,27.79
2022-08-11T05:05:34.673Z,27.79
2022-08-11T05:06:34.667Z,27.62
2022-08-11T05:07:34.661Z,27.78
2022-08-11T05:08:34.674Z,27.67
2022-08-11T05:09:34.671Z,27.63
2022-08-11T05:10:34.654Z,27.63
2022-08-11T05:11:34.664Z,27.68
2022-08-11T05:12:34.662Z,27.66
2022-08-11T05:13:34.675Z,27.62
2022-08-11T05:14:34.695Z,27.61
2022-08-11T05:15:42.582Z,27.61
2022-08-11T05:16:34.664Z,27.54
2022-08-11T05:17:34.656Z,27.52
2022-08-11T05:18:34.674Z,27.43
2022-08-11T05:19:34.662Z,27.55
2022-08-11T05:20:34.663Z,27.55
2022-08-11T05:21:44.961Z,27.45
2022-08-11T05:22:34.680Z,27.3
2022-08-11T05:23:34.670Z,27.23
2022-08-11T05:24:34.665Z,27.2
2022-08-11T05:26:45.486Z,27.15
2022-08-11T05:26:46.285Z,27.15
2022-08-11T05:27:34.669Z,27.01
2022-08-11T05:28:34.663Z,27.05
2022-08-11T05:29:34.671Z,27.1
2022-08-11T05:30:34.769Z,27.1
2022-08-11T05:31:34.668Z,27.31
2022-08-11T05:32:34.668Z,27.41
2022-08-11T05:33:34.687Z,27.44
2022-08-11T05:34:34.681Z,27.35
2022-08-11T05:36:00.920Z,27.2
2022-08-11T05:36:34.669Z,27.2
2022-08-11T05:37:34.671Z,27.09
2022-08-11T05:38:34.671Z,27.01
2022-08-11T05:39:36.822Z,26.97
2022-08-11T05:40:34.656Z,26.97
2022-08-11T05:41:34.664Z,26.79
2022-08-11T05:42:34.663Z,26.78
2022-08-11T05:43:34.669Z,26.71
2022-08-11T05:44:34.696Z,26.69
2022-08-11T05:46:03.026Z,26.65
2022-08-11T05:46:34.665Z,26.63
2022-08-11T05:47:34.669Z,26.61
2022-08-11T05:48:34.690Z,26.54
2022-08-11T05:49:34.695Z,26.55
2022-08-11T05:50:34.672Z,26.55
2022-08-11T05:51:34.660Z,26.61
2022-08-11T05:52:34.710Z,26.51
2022-08-11T05:53:45.759Z,26.42
2022-08-11T05:54:34.707Z,26.28
2022-08-11T05:55:34.681Z,26.37
2022-08-11T05:56:34.684Z,26.37
2022-08-11T05:57:45.508Z,26.38
2022-08-11T05:58:39.536Z,26.38
2022-08-11T05:59:34.684Z,26.35
2022-08-11T06:00:34.664Z,26.35
2022-08-11T06:01:34.717Z,26.31
2022-08-11T06:02:34.663Z,26.27
2022-08-11T06:03:34.678Z,26.25
2022-08-11T06:04:34.683Z,26.25
2022-08-11T06:05:34.770Z,26.19
2022-08-11T06:06:34.662Z,26.19
2022-08-11T06:07:48.949Z,26.04
2022-08-11T06:08:34.655Z,26.07
2022-08-11T06:09:34.680Z,26.04
2022-08-11T06:10:34.658Z,26.04
2022-08-11T06:11:43.809Z,26.04
2022-08-11T06:12:34.671Z,26.04
2022-08-11T06:13:34.669Z,26.04
2022-08-11T06:14:34.848Z,26.01
2022-08-11T06:15:34.659Z,25.98
2022-08-11T06:16:34.664Z,25.98
2022-08-11T06:17:38.412Z,25.9
2022-08-11T06:18:34.692Z,25.87
2022-08-11T06:19:34.674Z,25.87
2022-08-11T06:20:34.677Z,25.78
2022-08-11T06:21:34.666Z,25.78
2022-08-11T06:22:34.678Z,25.74
2022-08-11T06:23:36.189Z,25.72
2022-08-11T06:24:34.696Z,25.63
2022-08-11T06:25:34.672Z,25.66
2022-08-11T06:26:44.776Z,25.64
2022-08-11T06:27:34.673Z,25.61
2022-08-11T06:28:34.668Z,25.61
2022-08-11T06:29:38.031Z,25.56
2022-08-11T06:30:34.662Z,25.56
2022-08-11T06:31:34.678Z,25.53
2022-08-11T06:32:34.670Z,25.51
2022-08-11T06:33:34.690Z,25.51
2022-08-11T06:34:34.687Z,25.43
2022-08-11T06:35:34.670Z,25.42
2022-08-11T06:36:34.679Z,25.42
2022-08-11T06:37:36.748Z,25.41
2022-08-11T06:38:34.674Z,25.39
2022-08-11T06:39:34.786Z,25.36
2022-08-11T06:40:34.667Z,25.32
2022-08-11T06:41:34.673Z,25.34
2022-08-11T06:42:34.668Z,25.32
2022-08-11T06:43:34.684Z,25.32
2022-08-11T06:44:34.679Z,25.26
2022-08-11T06:45:34.660Z,25.24
2022-08-11T06:46:34.672Z,25.24
2022-08-11T06:47:34.670Z,25.23
2022-08-11T06:48:34.704Z,25.18
2022-08-11T06:49:34.685Z,25.16
2022-08-11T06:50:34.668Z,25.16
2022-08-11T06:51:34.679Z,25.14
2022-08-11T06:52:36.248Z,25.14
2022-08-11T06:53:34.717Z,25.12
2022-08-11T06:54:34.697Z,25.12
2022-08-11T06:55:56.816Z,25.11
2022-08-11T06:56:34.674Z,25.08
2022-08-11T06:57:34.671Z,25.05
2022-08-11T06:58:34.669Z,25.01
2022-08-11T06:59:34.683Z,25
2022-08-11T07:00:34.661Z,25
2022-08-11T07:01:34.802Z,24.96
2022-08-11T07:02:35.033Z,24.95
2022-08-11T07:03:34.696Z,24.95
2022-08-11T07:04:34.719Z,24.92
2022-08-11T07:05:34.684Z,24.9
2022-08-11T07:06:41.673Z,24.93
2022-08-11T07:07:34.693Z,24.93
2022-08-11T07:08:35.732Z,24.93
2022-08-11T07:09:34.688Z,24.93
2022-08-11T07:10:34.671Z,24.93
2022-08-11T07:11:34.665Z,24.92
2022-08-11T07:12:34.659Z,24.93
2022-08-11T07:13:44.678Z,24.91
2022-08-11T07:14:38.293Z,24.87
2022-08-11T07:16:11.644Z,24.87
2022-08-11T07:16:34.708Z,24.87
2022-08-11T07:17:34.657Z,24.87
2022-08-11T07:18:34.672Z,24.87
2022-08-11T07:19:34.692Z,24.85
2022-08-11T07:20:34.684Z,24.85
2022-08-11T07:22:01.477Z,24.84
2022-08-11T07:22:34.670Z,24.85
2022-08-11T07:23:34.676Z,24.84
2022-08-11T07:25:01.881Z,24.83
2022-08-11T07:25:34.693Z,24.83
2022-08-11T07:26:34.677Z,24.8
2022-08-11T07:27:37.336Z,24.81
2022-08-11T07:28:34.668Z,24.81
2022-08-11T07:29:34.696Z,24.8
2022-08-11T07:30:34.661Z,24.8
2022-08-11T07:31:34.713Z,24.76
2022-08-11T07:32:34.694Z,24.76
2022-08-11T07:34:05.768Z,24.76
2022-08-11T07:34:34.701Z,24.76
2022-08-11T07:35:34.683Z,24.76
2022-08-11T07:36:34.679Z,24.76
2022-08-11T07:37:34.687Z,24.76
2022-08-11T07:38:34.669Z,24.76
2022-08-11T07:39:34.797Z,24.76
2022-08-11T07:40:34.697Z,24.74
2022-08-11T07:41:34.668Z,24.74
2022-08-11T07:42:34.676Z,24.75
2022-08-11T07:43:34.698Z,24.75
2022-08-11T07:44:35.506Z,24.73
2022-08-11T07:45:34.683Z,24.72
2022-08-11T07:46:34.679Z,24.72
2022-08-11T07:47:34.676Z,24.7
2022-08-11T07:48:34.692Z,24.71
2022-08-11T07:49:34.696Z,24.7
2022-08-11T07:50:34.683Z,24.7
2022-08-11T07:51:34.660Z,24.7
2022-08-11T07:52:34.767Z,24.7
2022-08-11T07:53:34.670Z,24.69
2022-08-11T07:54:34.671Z,24.7
2022-08-11T07:55:51.058Z,24.7
2022-08-11T07:56:48.754Z,24.7
2022-08-11T07:57:56.265Z,24.69
2022-08-11T07:58:44.874Z,24.69
2022-08-11T07:59:57.585Z,24.67
2022-08-11T08:00:34.689Z,24.67
2022-08-11T08:01:34.682Z,24.67
2022-08-11T08:02:34.680Z,24.66
2022-08-11T08:03:34.677Z,24.65
2022-08-11T08:04:34.708Z,24.64
2022-08-11T08:05:34.664Z,24.66
2022-08-11T08:06:36.247Z,24.66
2022-08-11T08:07:34.673Z,24.66
2022-08-11T08:08:34.675Z,24.65
2022-08-11T08:14:34.690Z,24.65
2022-08-11T08:15:34.680Z,24.65
2022-08-11T08:16:34.673Z,24.64
2022-08-11T08:17:34.668Z,24.64
2022-08-11T08:18:34.693Z,24.64
2022-08-11T08:19:34.693Z,24.65
2022-08-11T08:20:34.687Z,24.65
2022-08-11T08:21:34.678Z,24.63
2022-08-11T08:22:38.634Z,24.63
2022-08-11T08:23:34.725Z,24.63
2022-08-11T08:24:34.710Z,24.63
2022-08-11T08:25:34.672Z,24.63
2022-08-11T08:26:34.686Z,24.63
2022-08-11T08:27:34.665Z,24.63
2022-08-11T08:28:34.664Z,24.62
2022-08-11T08:29:34.690Z,24.62
2022-08-11T08:30:34.669Z,24.62
2022-08-11T08:31:34.676Z,24.62
2022-08-11T08:32:34.696Z,24.62
2022-08-11T08:33:34.705Z,24.62
2022-08-11T08:34:34.688Z,24.62
2022-08-11T08:35:34.685Z,24.62
2022-08-11T08:36:34.679Z,24.62
2022-08-11T08:37:46.198Z,24.62
2022-08-11T08:38:34.674Z,24.61
2022-08-11T08:39:34.760Z,24.61
2022-08-11T08:40:34.678Z,24.61
2022-08-11T08:41:34.672Z,24.61
2022-08-11T08:42:34.683Z,24.6
2022-08-11T08:43:47.605Z,24.61
2022-08-11T08:44:39.181Z,24.6
2022-08-11T08:45:34.814Z,24.6
2022-08-11T08:46:34.679Z,24.61
2022-08-11T08:47:42.058Z,24.61
2022-08-11T08:48:34.678Z,24.6
2022-08-11T08:49:34.678Z,24.6
2022-08-11T08:50:34.680Z,24.6
2022-08-11T08:52:02.559Z,24.6
2022-08-11T08:52:37.287Z,24.6
2022-08-11T08:53:34.679Z,24.6
2022-08-11T08:54:34.721Z,24.6
2022-08-11T08:55:34.684Z,24.6
2022-08-11T08:56:34.682Z,24.6
2022-08-11T08:57:39.246Z,24.6
2022-08-11T08:58:34.668Z,24.62
2022-08-11T08:59:47.368Z,24.61
2022-08-11T09:00:34.671Z,24.61
2022-08-11T09:01:34.763Z,24.61
2022-08-11T09:02:35.176Z,24.62
2022-08-11T09:04:02.843Z,24.63
2022-08-11T09:04:34.690Z,24.63
2022-08-11T09:05:34.689Z,24.62
2022-08-11T09:06:34.682Z,24.62
2022-08-11T09:07:38.715Z,24.62
2022-08-11T09:08:34.679Z,24.62
2022-08-11T09:09:34.692Z,24.63
2022-08-11T09:10:34.666Z,24.63
2022-08-11T09:11:34.705Z,24.64
2022-08-11T09:12:45.892Z,24.63
2022-08-11T09:13:34.668Z,24.62
2022-08-11T09:14:34.680Z,24.63
2022-08-11T09:15:34.663Z,24.63
2022-08-11T09:16:34.668Z,24.63
2022-08-11T09:17:34.665Z,24.63
2022-08-11T09:18:34.686Z,24.63
2022-08-11T09:19:34.679Z,24.63
2022-08-11T09:20:34.669Z,24.63
2022-08-11T09:21:48.633Z,24.63
2022-08-11T09:22:34.668Z,24.64
2022-08-11T09:24:07.408Z,24.65
2022-08-11T09:24:34.694Z,24.65
2022-08-11T09:25:34.671Z,24.65
2022-08-11T09:26:34.673Z,24.64
2022-08-11T09:27:34.670Z,24.64
2022-08-11T09:28:34.678Z,24.63
2022-08-11T09:29:34.706Z,24.63
2022-08-11T09:30:34.681Z,24.64
2022-08-11T09:31:38.930Z,24.67
2022-08-11T09:32:34.720Z,24.69
2022-08-11T09:33:34.700Z,24.67
2022-08-11T09:34:34.692Z,24.67
2022-08-11T09:35:34.679Z,24.66
2022-08-11T09:36:34.685Z,24.65
2022-08-11T09:37:54.308Z,24.65
2022-08-11T09:38:34.679Z,24.67
2022-08-11T09:39:34.704Z,24.67
2022-08-11T09:40:34.669Z,24.68
2022-08-11T09:42:00.545Z,24.69
2022-08-11T09:42:34.678Z,24.69
2022-08-11T09:43:34.703Z,24.67
2022-08-11T09:44:34.685Z,24.67
2022-08-11T09:45:40.055Z,24.67
2022-08-11T09:46:34.690Z,24.67
2022-08-11T09:47:34.760Z,24.67
2022-08-11T09:48:34.684Z,24.67
2022-08-11T09:49:34.690Z,24.67
2022-08-11T09:50:34.667Z,24.67
2022-08-11T09:51:34.673Z,24.67
2022-08-11T09:52:34.676Z,24.67
2022-08-11T09:53:40.955Z,24.67
2022-08-11T09:54:34.698Z,24.67
2022-08-11T09:55:34.682Z,24.67
2022-08-11T09:56:34.680Z,24.67
2022-08-11T09:57:34.678Z,24.67
2022-08-11T09:58:42.501Z,24.67
2022-08-11T09:59:34.690Z,24.67
2022-08-11T10:00:34.683Z,24.67
2022-08-11T10:01:34.761Z,24.67
2022-08-11T10:02:34.683Z,24.67
2022-08-11T10:03:38.267Z,24.67
2022-08-11T10:04:34.702Z,24.67
2022-08-11T10:05:34.689Z,24.67
2022-08-11T10:06:34.776Z,24.67
2022-08-11T10:07:34.672Z,24.67
2022-08-11T10:08:34.679Z,24.67
2022-08-11T10:09:34.686Z,24.67
2022-08-11T10:10:34.688Z,24.67
2022-08-11T10:11:34.683Z,24.67
2022-08-11T10:12:34.672Z,24.67
2022-08-11T10:14:31.040Z,24.67
2022-08-11T10:14:35.142Z,24.67
2022-08-11T10:15:34.675Z,24.67
2022-08-11T10:16:34.672Z,24.67
2022-08-11T10:17:34.683Z,24.67
2022-08-11T10:18:34.686Z,24.67
2022-08-11T10:19:34.684Z,24.67
2022-08-11T10:20:34.664Z,24.67
2022-08-11T10:21:34.668Z,24.67
2022-08-11T10:25:34.710Z,24.67
2022-08-11T10:26:34.675Z,24.67
2022-08-11T10:27:34.800Z,24.67
2022-08-11T10:28:50.035Z,24.67
2022-08-11T10:29:36.703Z,24.67
2022-08-11T10:30:34.680Z,24.67
2022-08-11T10:31:57.730Z,24.67
2022-08-11T10:32:36.239Z,24.67
2022-08-11T10:33:37.884Z,24.67
2022-08-11T10:34:34.669Z,24.67
2022-08-11T10:35:34.680Z,24.67
2022-08-11T10:36:34.673Z,24.67
2022-08-11T10:38:07.464Z,24.67
2022-08-11T10:38:34.690Z,24.67
2022-08-11T10:39:34.726Z,24.67
2022-08-11T10:40:34.690Z,24.67
2022-08-11T10:41:34.685Z,24.67
2022-08-11T10:42:54.925Z,24.67
2022-08-11T10:44:02.891Z,24.67
2022-08-11T10:44:34.675Z,24.67
2022-08-11T10:45:34.682Z,24.67
2022-08-11T10:46:34.672Z,24.67
2022-08-11T10:47:34.773Z,24.67
2022-08-11T10:48:34.694Z,24.67
2022-08-11T10:49:34.672Z,24.67
2022-08-11T10:50:34.678Z,24.67
2022-08-11T10:51:50.866Z,24.67
2022-08-11T10:52:34.669Z,24.67
2022-08-11T10:53:34.677Z,24.67
2022-08-11T10:54:34.673Z,24.67
2022-08-11T10:55:34.682Z,24.67
2022-08-11T10:56:34.667Z,24.67
2022-08-11T10:57:34.673Z,24.67
2022-08-11T10:58:34.675Z,24.67
2022-08-11T10:59:34.680Z,24.67
2022-08-11T11:00:34.669Z,24.67
2022-08-11T11:01:34.754Z,24.67
2022-08-11T11:02:34.666Z,24.67
2022-08-11T11:03:34.694Z,24.67
2022-08-11T11:04:34.663Z,24.67
2022-08-11T11:05:34.669Z,24.67
2022-08-11T11:06:34.662Z,24.67
2022-08-11T11:10:34.683Z,24.67
2022-08-11T11:11:34.678Z,24.67
2022-08-11T11:12:34.666Z,24.67
2022-08-11T11:13:34.670Z,24.67
2022-08-11T11:14:34.883Z,24.67
2022-08-11T11:15:34.678Z,24.67
2022-08-11T11:16:34.676Z,24.67
2022-08-11T11:17:34.679Z,24.67
2022-08-11T11:18:34.690Z,24.67
2022-08-11T11:19:34.664Z,24.67
2022-08-11T11:20:37.921Z,24.67
2022-08-11T11:21:34.662Z,24.67
2022-08-11T11:22:34.671Z,24.67
2022-08-11T11:23:34.665Z,24.67
2022-08-11T11:24:34.667Z,24.67
2022-08-11T11:25:34.669Z,24.67
2022-08-11T11:26:34.651Z,24.67
2022-08-11T11:27:34.652Z,24.67
2022-08-11T11:28:34.652Z,24.67
2022-08-11T11:29:34.646Z,24.67
2022-08-11T11:30:34.642Z,24.67
2022-08-11T11:31:34.624Z,24.67
2022-08-11T11:32:34.640Z,24.67
2022-08-11T11:33:34.651Z,24.67
2022-08-11T11:34:34.623Z,24.67
2022-08-11T11:35:34.647Z,24.67
2022-08-11T11:36:34.636Z,24.67
2022-08-11T11:37:34.624Z,24.67
2022-08-11T11:38:34.623Z,24.67
2022-08-11T11:39:34.675Z,24.67
2022-08-11T11:40:34.644Z,24.67
2022-08-11T11:41:34.611Z,24.67
2022-08-11T11:42:34.619Z,24.67
2022-08-11T11:43:34.624Z,24.67
2022-08-11T11:44:34.623Z,24.67
2022-08-11T11:45:34.638Z,24.67
2022-08-11T11:46:38.775Z,24.67
2022-08-11T11:47:34.612Z,24.67
2022-08-11T11:48:34.617Z,24.67
2022-08-11T11:49:34.611Z,24.67
2022-08-11T11:50:34.618Z,24.67
2022-08-11T11:51:34.603Z,24.67
2022-08-11T11:52:34.598Z,24.67
2022-08-11T11:53:34.599Z,24.67
2022-08-11T11:54:34.597Z,24.67
2022-08-11T11:55:34.620Z,24.67
2022-08-11T11:56:34.601Z,24.67
2022-08-11T11:57:34.603Z,24.67
2022-08-11T11:58:34.614Z,24.67
2022-08-11T11:59:34.619Z,24.67
2022-08-11T12:00:34.665Z,24.67
2022-08-11T12:01:34.638Z,24.67
2022-08-11T12:02:34.666Z,24.67
2022-08-11T12:03:34.680Z,24.67
2022-08-11T12:04:34.654Z,24.67
2022-08-11T12:05:34.684Z,24.67
2022-08-11T12:06:34.648Z,24.67
2022-08-11T12:07:34.737Z,24.67
2022-08-11T12:08:34.664Z,24.67
2022-08-11T12:09:34.655Z,24.67
2022-08-11T12:10:34.681Z,24.67
2022-08-11T12:11:34.674Z,24.67
2022-08-11T12:12:34.659Z,24.67
2022-08-11T12:13:34.671Z,24.67
2022-08-11T12:14:34.676Z,24.67
2022-08-11T12:16:06.503Z,24.67
2022-08-11T12:16:36.613Z,24.67
2022-08-11T12:17:34.673Z,24.67
2022-08-11T12:18:34.698Z,24.67
2022-08-11T12:19:35.662Z,24.67
2022-08-11T12:20:34.784Z,24.67
2022-08-11T12:21:34.676Z,24.67
2022-08-11T12:22:34.682Z,24.67
2022-08-11T12:23:34.672Z,24.67
2022-08-11T12:24:34.678Z,24.67
2022-08-11T12:25:34.683Z,24.67
2022-08-11T12:26:34.683Z,24.67
2022-08-11T12:27:34.727Z,24.67
2022-08-11T12:28:34.676Z,24.67
2022-08-11T12:29:34.692Z,24.67
2022-08-11T12:30:34.710Z,24.67
2022-08-11T12:31:34.698Z,24.67
2022-08-11T12:32:34.762Z,24.67
2022-08-11T12:33:38.761Z,24.67
2022-08-11T12:34:34.687Z,24.67
2022-08-11T12:35:34.693Z,24.67
2022-08-11T12:36:34.679Z,24.67
2022-08-11T12:37:34.789Z,24.67
2022-08-11T12:38:34.681Z,24.67
2022-08-11T12:40:15.885Z,24.67
2022-08-11T12:40:42.783Z,24.67
2022-08-11T12:41:34.684Z,24.67
2022-08-11T12:42:34.665Z,24.67
2022-08-11T12:43:37.918Z,24.67
2022-08-11T12:44:34.667Z,24.67
2022-08-11T12:45:34.689Z,24.67
2022-08-11T12:46:34.671Z,24.67
2022-08-11T12:47:34.712Z,24.67
2022-08-11T12:48:59.661Z,24.67
2022-08-11T12:49:34.665Z,24.67
2022-08-11T12:50:34.688Z,24.67
2022-08-11T12:52:00.922Z,24.67
2022-08-11T12:52:34.685Z,24.67
2022-08-11T12:53:34.685Z,24.67
2022-08-11T12:54:34.683Z,24.67
2022-08-11T12:55:34.686Z,24.67
2022-08-11T12:56:34.684Z,24.67
2022-08-11T12:57:45.805Z,24.67
2022-08-11T12:58:34.674Z,24.67
2022-08-11T12:59:34.672Z,24.67
2022-08-11T13:00:34.754Z,24.67
2022-08-11T13:01:34.778Z,24.67
2022-08-11T13:02:35.687Z,24.67
2022-08-11T13:03:34.703Z,24.67
2022-08-11T13:04:34.682Z,24.67
2022-08-11T13:05:34.685Z,24.67
2022-08-11T13:06:34.672Z,24.67
2022-08-11T13:07:50.646Z,24.67
2022-08-11T13:08:34.665Z,24.67
2022-08-11T13:09:34.685Z,24.67
2022-08-11T13:10:34.680Z,24.67
2022-08-11T13:11:56.428Z,24.67
2022-08-11T13:12:34.737Z,24.67